sensor_id;sensor_type;location;lat;lon;timestamp;temperature;humidity
23122;DHT22;11730;51.248;22.534;2022-08-30T00:02:17;15.40;99.90
23122;DHT22;11730;51.248;22.534;2022-08-30T00:07:13;15.30;99.90
23122;DHT22;11730;51.248;22.534;2022-08-30T00:09:39;15.20;99.90
23122;DHT22;11730;51.248;22.534;2022-08-30T00:12:07;15.30;99.90
23122;DHT22;11730;51.248;22.534;2022-08-30T00:14:34;15.10;99.90
23122;DHT22;11730;51.248;22.534;2022-08-30T00:17:01;15.20;99.90
23122;DHT22;11730;51.248;22.534;2022-08-30T00:21:56;15.30;99.90
23122;DHT22;11730;51.248;22.534;2022-08-30T00:24:23;15.40;99.90
23122;DHT22;11730;51.248;22.534;2022-08-30T00:26:50;15.10;99.90
23122;DHT22;11730;51.248;22.534;2022-08-30T00:29:17;15.30;99.90
23122;DHT22;11730;51.248;22.534;2022-08-30T00:36:38;15.30;99.90
23122;DHT22;11730;51.248;22.534;2022-08-30T00:39:06;15.20;99.90
23122;DHT22;11730;51.248;22.534;2022-08-30T00:41:33;15.20;99.90
23122;DHT22;11730;51.248;22.534;2022-08-30T00:44:00;15.20;99.90
23122;DHT22;11730;51.248;22.534;2022-08-30T00:46:28;15.10;99.90
23122;DHT22;11730;51.248;22.534;2022-08-30T00:48:55;15.10;99.90
23122;DHT22;11730;51.248;22.534;2022-08-30T00:51:23;15.00;99.90
23122;DHT22;11730;51.248;22.534;2022-08-30T00:53:54;15.00;99.90
23122;DHT22;11730;51.248;22.534;2022-08-30T00:56:23;15.00;99.90
23122;DHT22;11730;51.248;22.534;2022-08-30T00:58:54;15.30;99.90
23122;DHT22;11730;51.248;22.534;2022-08-30T01:01:23;15.00;99.90
23122;DHT22;11730;51.248;22.534;2022-08-30T01:03:51;15.10;99.90
23122;DHT22;11730;51.248;22.534;2022-08-30T01:06:19;14.90;99.90
23122;DHT22;11730;51.248;22.534;2022-08-30T01:08:47;15.10;99.90
23122;DHT22;11730;51.248;22.534;2022-08-30T01:11:18;15.10;99.90
23122;DHT22;11730;51.248;22.534;2022-08-30T01:13:46;15.00;99.90
23122;DHT22;11730;51.248;22.534;2022-08-30T01:16:14;15.00;99.90
23122;DHT22;11730;51.248;22.534;2022-08-30T01:18:42;14.90;99.90
23122;DHT22;11730;51.248;22.534;2022-08-30T01:23:47;15.10;99.90
23122;DHT22;11730;51.248;22.534;2022-08-30T01:26:14;15.00;99.90
23122;DHT22;11730;51.248;22.534;2022-08-30T01:28:52;15.00;99.90
23122;DHT22;11730;51.248;22.534;2022-08-30T01:31:20;15.00;99.90
23122;DHT22;11730;51.248;22.534;2022-08-30T01:33:47;14.80;99.90
23122;DHT22;11730;51.248;22.534;2022-08-30T01:36:15;15.00;99.90
23122;DHT22;11730;51.248;22.534;2022-08-30T01:38:55;14.90;99.90
23122;DHT22;11730;51.248;22.534;2022-08-30T01:41:31;15.00;99.90
23122;DHT22;11730;51.248;22.534;2022-08-30T01:44:03;14.80;99.90
23122;DHT22;11730;51.248;22.534;2022-08-30T01:46:33;15.00;99.90
23122;DHT22;11730;51.248;22.534;2022-08-30T01:49:04;15.00;99.90
23122;DHT22;11730;51.248;22.534;2022-08-30T01:53:59;14.70;99.90
23122;DHT22;11730;51.248;22.534;2022-08-30T01:56:28;14.80;99.90
23122;DHT22;11730;51.248;22.534;2022-08-30T01:58:56;14.90;99.90
23122;DHT22;11730;51.248;22.534;2022-08-30T02:01:30;15.00;99.90
23122;DHT22;11730;51.248;22.534;2022-08-30T02:06:25;14.70;99.90
23122;DHT22;11730;51.248;22.534;2022-08-30T02:08:53;14.80;99.90
23122;DHT22;11730;51.248;22.534;2022-08-30T02:13:47;14.80;99.90
23122;DHT22;11730;51.248;22.534;2022-08-30T02:16:17;14.70;99.90
23122;DHT22;11730;51.248;22.534;2022-08-30T02:18:44;14.90;99.90
23122;DHT22;11730;51.248;22.534;2022-08-30T02:21:12;14.80;99.90
23122;DHT22;11730;51.248;22.534;2022-08-30T02:26:06;14.70;99.90
23122;DHT22;11730;51.248;22.534;2022-08-30T02:28:33;15.00;99.90
23122;DHT22;11730;51.248;22.534;2022-08-30T02:31:09;14.80;99.90
23122;DHT22;11730;51.248;22.534;2022-08-30T02:33:37;14.80;99.90
23122;DHT22;11730;51.248;22.534;2022-08-30T02:36:07;14.60;99.90
23122;DHT22;11730;51.248;22.534;2022-08-30T02:38:34;14.70;99.90
23122;DHT22;11730;51.248;22.534;2022-08-30T02:41:01;14.70;99.90
23122;DHT22;11730;51.248;22.534;2022-08-30T02:43:28;14.50;99.90
23122;DHT22;11730;51.248;22.534;2022-08-30T02:45:55;14.80;99.90
23122;DHT22;11730;51.248;22.534;2022-08-30T02:48:22;14.70;99.90
23122;DHT22;11730;51.248;22.534;2022-08-30T02:50:51;14.80;99.90
23122;DHT22;11730;51.248;22.534;2022-08-30T02:53:20;14.70;99.90
23122;DHT22;11730;51.248;22.534;2022-08-30T02:55:47;14.80;99.90
23122;DHT22;11730;51.248;22.534;2022-08-30T02:58:14;14.60;99.90
23122;DHT22;11730;51.248;22.534;2022-08-30T03:00:41;14.90;99.90
23122;DHT22;11730;51.248;22.534;2022-08-30T03:05:36;14.70;99.90
23122;DHT22;11730;51.248;22.534;2022-08-30T03:08:06;14.80;99.90
23122;DHT22;11730;51.248;22.534;2022-08-30T03:10:33;14.60;99.90
23122;DHT22;11730;51.248;22.534;2022-08-30T03:13:00;14.60;99.90
23122;DHT22;11730;51.248;22.534;2022-08-30T03:15:28;14.50;99.90
23122;DHT22;11730;51.248;22.534;2022-08-30T03:17:55;14.60;99.90
23122;DHT22;11730;51.248;22.534;2022-08-30T03:20:23;14.60;99.90
23122;DHT22;11730;51.248;22.534;2022-08-30T03:22:50;14.40;99.90
23122;DHT22;11730;51.248;22.534;2022-08-30T03:25:18;14.40;99.90
23122;DHT22;11730;51.248;22.534;2022-08-30T03:27:47;14.70;99.90
23122;DHT22;11730;51.248;22.534;2022-08-30T03:30:16;14.50;99.90
23122;DHT22;11730;51.248;22.534;2022-08-30T03:35:11;13.80;99.90
23122;DHT22;11730;51.248;22.534;2022-08-30T03:40:08;14.50;99.90
23122;DHT22;11730;51.248;22.534;2022-08-30T03:45:05;14.30;99.90
23122;DHT22;11730;51.248;22.534;2022-08-30T03:47:33;14.30;99.90
23122;DHT22;11730;51.248;22.534;2022-08-30T03:50:00;14.40;99.90
23122;DHT22;11730;51.248;22.534;2022-08-30T03:57:21;14.50;99.90
23122;DHT22;11730;51.248;22.534;2022-08-30T03:59:50;14.50;99.90
23122;DHT22;11730;51.248;22.534;2022-08-30T04:02:17;14.40;99.90
23122;DHT22;11730;51.248;22.534;2022-08-30T04:04:44;14.30;99.90
23122;DHT22;11730;51.248;22.534;2022-08-30T04:07:11;14.60;99.90
23122;DHT22;11730;51.248;22.534;2022-08-30T04:09:38;14.40;99.90
23122;DHT22;11730;51.248;22.534;2022-08-30T04:12:06;14.30;99.90
23122;DHT22;11730;51.248;22.534;2022-08-30T04:14:33;14.50;99.90
23122;DHT22;11730;51.248;22.534;2022-08-30T04:17:00;14.50;99.90
23122;DHT22;11730;51.248;22.534;2022-08-30T04:19:27;14.40;99.90
23122;DHT22;11730;51.248;22.534;2022-08-30T04:24:23;14.60;99.90
23122;DHT22;11730;51.248;22.534;2022-08-30T04:26:51;14.60;99.90
23122;DHT22;11730;51.248;22.534;2022-08-30T04:29:18;14.40;99.90
23122;DHT22;11730;51.248;22.534;2022-08-30T04:31:45;14.50;99.90
23122;DHT22;11730;51.248;22.534;2022-08-30T04:34:13;14.60;99.90
23122;DHT22;11730;51.248;22.534;2022-08-30T04:36:40;14.80;99.90
23122;DHT22;11730;51.248;22.534;2022-08-30T04:41:41;14.70;99.90
23122;DHT22;11730;51.248;22.534;2022-08-30T04:44:08;14.50;99.90
23122;DHT22;11730;51.248;22.534;2022-08-30T04:46:44;14.70;99.90
23122;DHT22;11730;51.248;22.534;2022-08-30T04:49:11;14.80;99.90
23122;DHT22;11730;51.248;22.534;2022-08-30T04:56:33;14.90;99.90
23122;DHT22;11730;51.248;22.534;2022-08-30T04:59:00;15.00;99.90
23122;DHT22;11730;51.248;22.534;2022-08-30T05:01:29;15.10;99.90
23122;DHT22;11730;51.248;22.534;2022-08-30T05:03:56;15.10;99.90
23122;DHT22;11730;51.248;22.534;2022-08-30T05:06:26;15.00;99.90
23122;DHT22;11730;51.248;22.534;2022-08-30T05:08:54;15.30;99.90
23122;DHT22;11730;51.248;22.534;2022-08-30T05:11:22;15.20;99.90
23122;DHT22;11730;51.248;22.534;2022-08-30T05:16:17;15.20;99.90
23122;DHT22;11730;51.248;22.534;2022-08-30T05:18:49;15.40;99.90
23122;DHT22;11730;51.248;22.534;2022-08-30T05:21:21;15.40;99.90
23122;DHT22;11730;51.248;22.534;2022-08-30T05:26:24;15.50;99.90
23122;DHT22;11730;51.248;22.534;2022-08-30T05:28:52;15.70;99.90
23122;DHT22;11730;51.248;22.534;2022-08-30T05:31:26;15.60;99.90
23122;DHT22;11730;51.248;22.534;2022-08-30T05:33:54;15.70;99.90
23122;DHT22;11730;51.248;22.534;2022-08-30T05:36:24;15.70;99.90
23122;DHT22;11730;51.248;22.534;2022-08-30T05:38:52;15.90;99.90
23122;DHT22;11730;51.248;22.534;2022-08-30T05:41:21;16.00;99.90
23122;DHT22;11730;51.248;22.534;2022-08-30T05:43:56;16.30;99.90
23122;DHT22;11730;51.248;22.534;2022-08-30T05:46:24;16.20;99.90
23122;DHT22;11730;51.248;22.534;2022-08-30T05:48:51;16.40;99.90
23122;DHT22;11730;51.248;22.534;2022-08-30T05:51:21;16.40;99.90
23122;DHT22;11730;51.248;22.534;2022-08-30T05:53:50;16.30;99.90
23122;DHT22;11730;51.248;22.534;2022-08-30T05:56:22;16.50;99.90
23122;DHT22;11730;51.248;22.534;2022-08-30T05:58:52;16.40;99.90
23122;DHT22;11730;51.248;22.534;2022-08-30T06:01:31;16.50;99.90
23122;DHT22;11730;51.248;22.534;2022-08-30T06:04:00;16.60;99.90
23122;DHT22;11730;51.248;22.534;2022-08-30T06:06:34;16.60;99.90
23122;DHT22;11730;51.248;22.534;2022-08-30T06:09:02;17.00;99.90
23122;DHT22;11730;51.248;22.534;2022-08-30T06:11:32;17.00;99.90
23122;DHT22;11730;51.248;22.534;2022-08-30T06:16:27;17.10;99.90
23122;DHT22;11730;51.248;22.534;2022-08-30T06:18:56;17.30;99.90
23122;DHT22;11730;51.248;22.534;2022-08-30T06:21:28;17.20;99.90
23122;DHT22;11730;51.248;22.534;2022-08-30T06:23:56;17.30;99.90
23122;DHT22;11730;51.248;22.534;2022-08-30T06:26:24;17.50;99.90
23122;DHT22;11730;51.248;22.534;2022-08-30T06:28:52;17.40;99.90
23122;DHT22;11730;51.248;22.534;2022-08-30T06:31:21;17.50;99.90
23122;DHT22;11730;51.248;22.534;2022-08-30T06:33:48;17.10;99.90
23122;DHT22;11730;51.248;22.534;2022-08-30T06:36:19;17.10;99.90
23122;DHT22;11730;51.248;22.534;2022-08-30T06:38:49;17.50;99.90
23122;DHT22;11730;51.248;22.534;2022-08-30T06:41:20;17.60;99.90
23122;DHT22;11730;51.248;22.534;2022-08-30T06:43:48;17.50;99.90
23122;DHT22;11730;51.248;22.534;2022-08-30T06:46:19;17.60;99.90
23122;DHT22;11730;51.248;22.534;2022-08-30T06:48:46;17.70;99.90
23122;DHT22;11730;51.248;22.534;2022-08-30T06:51:18;17.50;99.90
23122;DHT22;11730;51.248;22.534;2022-08-30T06:53:45;17.80;99.90
23122;DHT22;11730;51.248;22.534;2022-08-30T06:58:43;18.50;99.90
23122;DHT22;11730;51.248;22.534;2022-08-30T07:01:13;18.80;99.90
23122;DHT22;11730;51.248;22.534;2022-08-30T07:03:40;18.60;99.90
23122;DHT22;11730;51.248;22.534;2022-08-30T07:06:08;18.80;99.90
23122;DHT22;11730;51.248;22.534;2022-08-30T07:08:36;18.30;99.90
23122;DHT22;11730;51.248;22.534;2022-08-30T07:11:04;18.50;99.90
23122;DHT22;11730;51.248;22.534;2022-08-30T07:13:31;18.60;99.90
23122;DHT22;11730;51.248;22.534;2022-08-30T07:15:59;18.50;99.90
23122;DHT22;11730;51.248;22.534;2022-08-30T07:18:26;18.50;99.90
23122;DHT22;11730;51.248;22.534;2022-08-30T07:21:14;18.60;99.90
23122;DHT22;11730;51.248;22.534;2022-08-30T07:23:42;18.60;99.90
23122;DHT22;11730;51.248;22.534;2022-08-30T07:26:12;19.30;99.90
23122;DHT22;11730;51.248;22.534;2022-08-30T07:28:41;19.60;99.90
23122;DHT22;11730;51.248;22.534;2022-08-30T07:31:10;20.10;99.90
23122;DHT22;11730;51.248;22.534;2022-08-30T07:36:06;20.60;99.90
23122;DHT22;11730;51.248;22.534;2022-08-30T07:41:01;20.20;99.90
23122;DHT22;11730;51.248;22.534;2022-08-30T07:43:29;20.30;99.90
23122;DHT22;11730;51.248;22.534;2022-08-30T07:46:06;20.50;99.90
23122;DHT22;11730;51.248;22.534;2022-08-30T07:48:34;20.40;99.90
23122;DHT22;11730;51.248;22.534;2022-08-30T07:53:31;21.40;99.90
23122;DHT22;11730;51.248;22.534;2022-08-30T07:58:30;21.20;99.90
23122;DHT22;11730;51.248;22.534;2022-08-30T08:00:57;21.00;99.90
23122;DHT22;11730;51.248;22.534;2022-08-30T08:03:28;21.10;99.90
23122;DHT22;11730;51.248;22.534;2022-08-30T08:05:55;21.30;99.90
23122;DHT22;11730;51.248;22.534;2022-08-30T08:08:23;21.20;99.90
23122;DHT22;11730;51.248;22.534;2022-08-30T08:10:50;21.30;99.90
23122;DHT22;11730;51.248;22.534;2022-08-30T08:15:46;21.60;99.90
23122;DHT22;11730;51.248;22.534;2022-08-30T08:18:13;22.00;99.90
23122;DHT22;11730;51.248;22.534;2022-08-30T08:20:41;22.30;99.90
23122;DHT22;11730;51.248;22.534;2022-08-30T08:23:08;22.20;99.90
23122;DHT22;11730;51.248;22.534;2022-08-30T08:25:38;22.40;99.90
23122;DHT22;11730;51.248;22.534;2022-08-30T08:30:35;23.00;99.90
23122;DHT22;11730;51.248;22.534;2022-08-30T08:33:03;22.90;99.90
23122;DHT22;11730;51.248;22.534;2022-08-30T08:35:31;23.20;99.90
23122;DHT22;11730;51.248;22.534;2022-08-30T08:37:58;23.30;99.90
23122;DHT22;11730;51.248;22.534;2022-08-30T08:40:26;22.90;99.90
23122;DHT22;11730;51.248;22.534;2022-08-30T08:43:13;23.40;99.90
23122;DHT22;11730;51.248;22.534;2022-08-30T08:48:39;23.20;99.20
23122;DHT22;11730;51.248;22.534;2022-08-30T08:51:29;23.10;99.30
23122;DHT22;11730;51.248;22.534;2022-08-30T08:57:05;23.70;98.20
23122;DHT22;11730;51.248;22.534;2022-08-30T09:02:28;22.80;98.80
23122;DHT22;11730;51.248;22.534;2022-08-30T09:04:56;22.90;99.20
23122;DHT22;11730;51.248;22.534;2022-08-30T09:07:26;23.60;96.90
23122;DHT22;11730;51.248;22.534;2022-08-30T09:09:57;22.90;96.50
23122;DHT22;11730;51.248;22.534;2022-08-30T09:12:27;22.80;97.30
23122;DHT22;11730;51.248;22.534;2022-08-30T09:15:08;23.00;97.20
23122;DHT22;11730;51.248;22.534;2022-08-30T09:18:02;23.10;97.10
23122;DHT22;11730;51.248;22.534;2022-08-30T09:20:42;22.30;97.60
23122;DHT22;11730;51.248;22.534;2022-08-30T09:25:51;22.10;98.10
23122;DHT22;11730;51.248;22.534;2022-08-30T09:28:25;23.20;96.70
23122;DHT22;11730;51.248;22.534;2022-08-30T09:31:03;23.80;97.30
23122;DHT22;11730;51.248;22.534;2022-08-30T09:33:36;24.00;94.60
23122;DHT22;11730;51.248;22.534;2022-08-30T09:36:21;24.00;95.30
23122;DHT22;11730;51.248;22.534;2022-08-30T09:39:00;23.50;95.60
23122;DHT22;11730;51.248;22.534;2022-08-30T09:44:13;22.80;96.00
23122;DHT22;11730;51.248;22.534;2022-08-30T09:46:49;22.60;97.40
23122;DHT22;11730;51.248;22.534;2022-08-30T09:49:40;22.20;98.00
23122;DHT22;11730;51.248;22.534;2022-08-30T10:06:32;23.40;96.40
23122;DHT22;11730;51.248;22.534;2022-08-30T10:11:48;24.00;94.00
23122;DHT22;11730;51.248;22.534;2022-08-30T10:15:09;24.10;94.00
23122;DHT22;11730;51.248;22.534;2022-08-30T10:17:54;23.70;93.80
23122;DHT22;11730;51.248;22.534;2022-08-30T10:20:32;23.70;94.00
23122;DHT22;11730;51.248;22.534;2022-08-30T10:23:28;22.80;94.90
23122;DHT22;11730;51.248;22.534;2022-08-30T10:28:49;23.80;96.00
23122;DHT22;11730;51.248;22.534;2022-08-30T10:31:32;25.20;94.20
23122;DHT22;11730;51.248;22.534;2022-08-30T10:34:07;25.00;92.00
23122;DHT22;11730;51.248;22.534;2022-08-30T10:36:42;24.80;92.10
23122;DHT22;11730;51.248;22.534;2022-08-30T10:39:18;23.90;93.20
23122;DHT22;11730;51.248;22.534;2022-08-30T10:41:52;23.20;93.60
23122;DHT22;11730;51.248;22.534;2022-08-30T10:44:29;22.90;93.80
23122;DHT22;11730;51.248;22.534;2022-08-30T10:48:02;22.70;94.30
23122;DHT22;11730;51.248;22.534;2022-08-30T10:50:16;22.50;94.70
23122;DHT22;11730;51.248;22.534;2022-08-30T10:52:51;22.10;95.40
23122;DHT22;11730;51.248;22.534;2022-08-30T10:55:30;21.90;95.60
23122;DHT22;11730;51.248;22.534;2022-08-30T10:58:04;21.50;96.20
23122;DHT22;11730;51.248;22.534;2022-08-30T11:14:14;22.20;95.70
23122;DHT22;11730;51.248;22.534;2022-08-30T11:16:45;21.70;95.50
23122;DHT22;11730;51.248;22.534;2022-08-30T11:19:20;21.50;96.00
23122;DHT22;11730;51.248;22.534;2022-08-30T11:21:52;21.80;96.10
23122;DHT22;11730;51.248;22.534;2022-08-30T11:35:44;23.50;93.30
23122;DHT22;11730;51.248;22.534;2022-08-30T11:46:20;26.10;79.60
23122;DHT22;11730;51.248;22.534;2022-08-30T12:00:40;27.40;77.60
23122;DHT22;11730;51.248;22.534;2022-08-30T12:10:54;26.80;75.60
23122;DHT22;11730;51.248;22.534;2022-08-30T12:18:48;27.80;76.90
23122;DHT22;11730;51.248;22.534;2022-08-30T12:37:19;26.80;74.20
23122;DHT22;11730;51.248;22.534;2022-08-30T12:40:07;26.90;69.80
23122;DHT22;11730;51.248;22.534;2022-08-30T12:42:40;26.80;70.80
23122;DHT22;11730;51.248;22.534;2022-08-30T12:45:13;26.30;73.70
23122;DHT22;11730;51.248;22.534;2022-08-30T12:47:48;25.00;73.80
23122;DHT22;11730;51.248;22.534;2022-08-30T12:50:22;24.70;77.60
23122;DHT22;11730;51.248;22.534;2022-08-30T12:53:11;24.40;79.10
23122;DHT22;11730;51.248;22.534;2022-08-30T13:03:40;24.90;79.10
23122;DHT22;11730;51.248;22.534;2022-08-30T13:08:48;26.40;77.70
23122;DHT22;11730;51.248;22.534;2022-08-30T13:13:54;26.60;76.20
23122;DHT22;11730;51.248;22.534;2022-08-30T13:16:27;25.60;73.50
23122;DHT22;11730;51.248;22.534;2022-08-30T13:19:33;25.30;76.10
23122;DHT22;11730;51.248;22.534;2022-08-30T13:22:01;25.10;77.70
23122;DHT22;11730;51.248;22.534;2022-08-30T13:24:29;25.30;78.20
23122;DHT22;11730;51.248;22.534;2022-08-30T13:27:01;25.70;76.80
23122;DHT22;11730;51.248;22.534;2022-08-30T13:29:29;25.00;76.80
23122;DHT22;11730;51.248;22.534;2022-08-30T13:31:56;25.80;78.20
23122;DHT22;11730;51.248;22.534;2022-08-30T13:34:23;26.40;78.20
23122;DHT22;11730;51.248;22.534;2022-08-30T13:36:53;27.90;75.50
23122;DHT22;11730;51.248;22.534;2022-08-30T13:39:20;28.10;73.10
23122;DHT22;11730;51.248;22.534;2022-08-30T13:41:48;26.90;71.80
23122;DHT22;11730;51.248;22.534;2022-08-30T13:44:17;26.40;74.50
23122;DHT22;11730;51.248;22.534;2022-08-30T13:46:49;25.60;73.90
23122;DHT22;11730;51.248;22.534;2022-08-30T13:49:22;24.80;75.50
23122;DHT22;11730;51.248;22.534;2022-08-30T13:52:14;24.30;76.80
23122;DHT22;11730;51.248;22.534;2022-08-30T13:54:57;24.90;77.50
23122;DHT22;11730;51.248;22.534;2022-08-30T13:57:26;25.00;77.10
23122;DHT22;11730;51.248;22.534;2022-08-30T14:00:16;24.70;76.40
23122;DHT22;11730;51.248;22.534;2022-08-30T14:02:46;24.70;78.30
23122;DHT22;11730;51.248;22.534;2022-08-30T14:05:35;24.00;78.00
23122;DHT22;11730;51.248;22.534;2022-08-30T14:08:28;23.80;80.90
23122;DHT22;11730;51.248;22.534;2022-08-30T14:11:18;23.50;79.30
23122;DHT22;11730;51.248;22.534;2022-08-30T14:13:47;23.10;81.20
23122;DHT22;11730;51.248;22.534;2022-08-30T14:16:37;23.20;82.10
23122;DHT22;11730;51.248;22.534;2022-08-30T14:19:05;23.00;82.80
23122;DHT22;11730;51.248;22.534;2022-08-30T14:21:34;23.10;84.40
23122;DHT22;11730;51.248;22.534;2022-08-30T14:24:01;23.10;82.90
23122;DHT22;11730;51.248;22.534;2022-08-30T14:26:37;23.10;84.90
23122;DHT22;11730;51.248;22.534;2022-08-30T14:29:09;23.10;85.80
23122;DHT22;11730;51.248;22.534;2022-08-30T14:31:40;23.40;84.70
23122;DHT22;11730;51.248;22.534;2022-08-30T14:34:11;22.90;85.80
23122;DHT22;11730;51.248;22.534;2022-08-30T14:36:40;22.70;86.10
23122;DHT22;11730;51.248;22.534;2022-08-30T14:39:09;22.80;86.60
23122;DHT22;11730;51.248;22.534;2022-08-30T14:41:44;22.80;86.00
23122;DHT22;11730;51.248;22.534;2022-08-30T14:44:13;22.90;85.10
23122;DHT22;11730;51.248;22.534;2022-08-30T14:46:41;22.70;84.30
23122;DHT22;11730;51.248;22.534;2022-08-30T14:51:38;22.70;85.20
23122;DHT22;11730;51.248;22.534;2022-08-30T14:54:05;22.70;85.20
23122;DHT22;11730;51.248;22.534;2022-08-30T14:56:33;22.70;83.90
23122;DHT22;11730;51.248;22.534;2022-08-30T14:59:00;22.90;85.20
23122;DHT22;11730;51.248;22.534;2022-08-30T15:03:57;22.60;85.30
23122;DHT22;11730;51.248;22.534;2022-08-30T15:06:24;22.50;84.20
23122;DHT22;11730;51.248;22.534;2022-08-30T15:08:53;22.50;85.90
23122;DHT22;11730;51.248;22.534;2022-08-30T15:11:26;22.30;85.70
23122;DHT22;11730;51.248;22.534;2022-08-30T15:13:55;22.50;86.00
23122;DHT22;11730;51.248;22.534;2022-08-30T15:16:28;22.70;85.20
23122;DHT22;11730;51.248;22.534;2022-08-30T15:18:58;22.30;84.50
23122;DHT22;11730;51.248;22.534;2022-08-30T15:21:34;22.00;85.20
23122;DHT22;11730;51.248;22.534;2022-08-30T15:24:06;21.90;86.20
23122;DHT22;11730;51.248;22.534;2022-08-30T15:26:35;21.70;86.60
23122;DHT22;11730;51.248;22.534;2022-08-30T15:31:32;21.80;87.50
23122;DHT22;11730;51.248;22.534;2022-08-30T15:33:59;21.90;88.30
23122;DHT22;11730;51.248;22.534;2022-08-30T15:36:28;21.80;88.40
23122;DHT22;11730;51.248;22.534;2022-08-30T15:38:56;22.10;89.00
23122;DHT22;11730;51.248;22.534;2022-08-30T15:41:26;21.70;89.80
23122;DHT22;11730;51.248;22.534;2022-08-30T15:43:55;21.50;90.80
23122;DHT22;11730;51.248;22.534;2022-08-30T15:46:29;21.80;90.80
23122;DHT22;11730;51.248;22.534;2022-08-30T15:49:21;21.90;91.50
23122;DHT22;11730;51.248;22.534;2022-08-30T15:51:50;22.00;90.80
23122;DHT22;11730;51.248;22.534;2022-08-30T15:54:21;21.50;91.00
23122;DHT22;11730;51.248;22.534;2022-08-30T15:59:26;21.20;92.00
23122;DHT22;11730;51.248;22.534;2022-08-30T16:01:53;21.10;92.30
23122;DHT22;11730;51.248;22.534;2022-08-30T16:06:51;20.90;93.00
23122;DHT22;11730;51.248;22.534;2022-08-30T16:09:18;20.90;93.10
23122;DHT22;11730;51.248;22.534;2022-08-30T16:11:45;20.80;93.10
23122;DHT22;11730;51.248;22.534;2022-08-30T16:14:12;20.70;93.60
23122;DHT22;11730;51.248;22.534;2022-08-30T16:16:39;20.70;94.10
23122;DHT22;11730;51.248;22.534;2022-08-30T16:19:08;20.60;93.90
23122;DHT22;11730;51.248;22.534;2022-08-30T16:21:35;20.60;94.50
23122;DHT22;11730;51.248;22.534;2022-08-30T16:24:04;20.40;94.70
23122;DHT22;11730;51.248;22.534;2022-08-30T16:26:33;20.50;94.50
23122;DHT22;11730;51.248;22.534;2022-08-30T16:29:00;20.50;95.20
23122;DHT22;11730;51.248;22.534;2022-08-30T16:31:29;20.50;95.50
23122;DHT22;11730;51.248;22.534;2022-08-30T16:33:57;20.50;95.80
23122;DHT22;11730;51.248;22.534;2022-08-30T16:36:30;20.40;95.60
23122;DHT22;11730;51.248;22.534;2022-08-30T16:41:25;20.30;96.50
23122;DHT22;11730;51.248;22.534;2022-08-30T16:43:53;20.40;96.70
23122;DHT22;11730;51.248;22.534;2022-08-30T16:46:22;20.30;96.70
23122;DHT22;11730;51.248;22.534;2022-08-30T16:48:57;20.20;96.90
23122;DHT22;11730;51.248;22.534;2022-08-30T16:51:27;20.20;97.20
23122;DHT22;11730;51.248;22.534;2022-08-30T16:53:56;20.20;97.20
23122;DHT22;11730;51.248;22.534;2022-08-30T16:56:25;20.10;97.70
23122;DHT22;11730;51.248;22.534;2022-08-30T16:58:54;20.10;97.40
23122;DHT22;11730;51.248;22.534;2022-08-30T17:01:29;20.10;97.80
23122;DHT22;11730;51.248;22.534;2022-08-30T17:03:57;20.20;98.00
23122;DHT22;11730;51.248;22.534;2022-08-30T17:08:52;20.00;97.70
23122;DHT22;11730;51.248;22.534;2022-08-30T17:11:23;20.10;97.90
23122;DHT22;11730;51.248;22.534;2022-08-30T17:13:50;20.00;97.60
23122;DHT22;11730;51.248;22.534;2022-08-30T17:16:18;20.10;97.60
23122;DHT22;11730;51.248;22.534;2022-08-30T17:18:54;20.20;97.40
23122;DHT22;11730;51.248;22.534;2022-08-30T17:21:27;19.70;97.70
23122;DHT22;11730;51.248;22.534;2022-08-30T17:23:55;20.40;98.20
23122;DHT22;11730;51.248;22.534;2022-08-30T17:26:29;19.60;98.30
23122;DHT22;11730;51.248;22.534;2022-08-30T17:28:57;19.50;98.10
23122;DHT22;11730;51.248;22.534;2022-08-30T17:33:56;19.90;98.70
23122;DHT22;11730;51.248;22.534;2022-08-30T17:36:30;20.30;98.60
23122;DHT22;11730;51.248;22.534;2022-08-30T17:38:58;19.90;98.30
23122;DHT22;11730;51.248;22.534;2022-08-30T17:41:25;20.00;98.60
23122;DHT22;11730;51.248;22.534;2022-08-30T17:43:52;19.90;98.90
23122;DHT22;11730;51.248;22.534;2022-08-30T17:46:19;19.90;99.00
23122;DHT22;11730;51.248;22.534;2022-08-30T17:54:07;19.10;98.70
23122;DHT22;11730;51.248;22.534;2022-08-30T17:59:02;19.40;98.80
23122;DHT22;11730;51.248;22.534;2022-08-30T18:06:32;19.50;99.90
23122;DHT22;11730;51.248;22.534;2022-08-30T18:09:03;19.40;99.90
23122;DHT22;11730;51.248;22.534;2022-08-30T18:11:33;19.60;99.90
23122;DHT22;11730;51.248;22.534;2022-08-30T18:14:02;19.30;99.90
23122;DHT22;11730;51.248;22.534;2022-08-30T18:16:32;19.40;99.90
23122;DHT22;11730;51.248;22.534;2022-08-30T18:19:02;19.60;99.90
23122;DHT22;11730;51.248;22.534;2022-08-30T18:21:36;19.60;99.90
23122;DHT22;11730;51.248;22.534;2022-08-30T18:24:05;19.10;99.90
23122;DHT22;11730;51.248;22.534;2022-08-30T18:26:34;19.60;99.90
23122;DHT22;11730;51.248;22.534;2022-08-30T18:29:03;19.00;99.90
23122;DHT22;11730;51.248;22.534;2022-08-30T18:33:58;19.10;99.90
23122;DHT22;11730;51.248;22.534;2022-08-30T18:36:29;19.10;99.90
23122;DHT22;11730;51.248;22.534;2022-08-30T18:43:52;19.00;99.90
23122;DHT22;11730;51.248;22.534;2022-08-30T18:46:39;18.60;99.90
23122;DHT22;11730;51.248;22.534;2022-08-30T18:49:27;18.60;99.90
23122;DHT22;11730;51.248;22.534;2022-08-30T18:51:57;19.00;99.90
23122;DHT22;11730;51.248;22.534;2022-08-30T18:54:25;18.60;99.90
23122;DHT22;11730;51.248;22.534;2022-08-30T18:56:52;18.80;99.90
23122;DHT22;11730;51.248;22.534;2022-08-30T18:59:20;19.00;99.90
23122;DHT22;11730;51.248;22.534;2022-08-30T19:04:15;19.00;99.90
23122;DHT22;11730;51.248;22.534;2022-08-30T19:11:55;18.80;99.90
23122;DHT22;11730;51.248;22.534;2022-08-30T19:14:22;18.10;99.90
23122;DHT22;11730;51.248;22.534;2022-08-30T19:16:53;18.80;99.90
23122;DHT22;11730;51.248;22.534;2022-08-30T19:19:22;17.80;99.90
23122;DHT22;11730;51.248;22.534;2022-08-30T19:24:18;18.60;99.90
23122;DHT22;11730;51.248;22.534;2022-08-30T19:29:13;18.70;99.90
23122;DHT22;11730;51.248;22.534;2022-08-30T19:36:37;18.10;99.90
23122;DHT22;11730;51.248;22.534;2022-08-30T19:39:05;18.00;99.90
23122;DHT22;11730;51.248;22.534;2022-08-30T19:41:32;18.10;99.90
23122;DHT22;11730;51.248;22.534;2022-08-30T19:43:59;17.30;99.90
23122;DHT22;11730;51.248;22.534;2022-08-30T19:46:29;17.70;99.90
23122;DHT22;11730;51.248;22.534;2022-08-30T19:49:17;17.30;99.90